sensor_id;sensor_type;location;lat;lon;timestamp;pressure;altitude;pressure_sealevel;temperature;humidity
5988;BME280;3021;51.000;6.980;2023-07-22T00:01:05;67906.31;;;14.41;100.00
5988;BME280;3021;51.000;6.980;2023-07-22T00:03:30;67903.28;;;14.35;100.00
5988;BME280;3021;51.000;6.980;2023-07-22T00:06:10;67902.00;;;14.32;100.00
5988;BME280;3021;51.000;6.980;2023-07-22T00:08:36;67889.50;;;14.26;100.00
5988;BME280;3021;51.000;6.980;2023-07-22T00:11:02;67888.22;;;14.22;100.00
5988;BME280;3021;51.000;6.980;2023-07-22T00:13:28;67883.00;;;14.17;100.00
5988;BME280;3021;51.000;6.980;2023-07-22T00:15:54;67876.75;;;14.14;100.00
5988;BME280;3021;51.000;6.980;2023-07-22T00:18:20;67875.88;;;14.09;100.00
5988;BME280;3021;51.000;6.980;2023-07-22T00:20:45;67865.00;;;14.02;100.00
5988;BME280;3021;51.000;6.980;2023-07-22T00:23:11;67861.53;;;13.98;100.00
5988;BME280;3021;51.000;6.980;2023-07-22T00:25:36;67856.91;;;13.94;100.00
5988;BME280;3021;51.000;6.980;2023-07-22T00:28:02;67850.09;;;13.91;100.00
5988;BME280;3021;51.000;6.980;2023-07-22T00:30:29;67848.38;;;13.89;100.00
5988;BME280;3021;51.000;6.980;2023-07-22T00:32:54;67848.78;;;13.87;100.00
5988;BME280;3021;51.000;6.980;2023-07-22T00:35:19;67848.22;;;13.87;100.00
5988;BME280;3021;51.000;6.980;2023-07-22T00:37:45;67849.25;;;13.85;100.00
5988;BME280;3021;51.000;6.980;2023-07-22T00:40:11;67848.78;;;13.87;100.00
5988;BME280;3021;51.000;6.980;2023-07-22T00:42:37;67847.50;;;13.83;100.00
5988;BME280;3021;51.000;6.980;2023-07-22T00:45:03;67851.56;;;13.87;100.00
5988;BME280;3021;51.000;6.980;2023-07-22T00:47:29;67849.38;;;13.88;100.00
5988;BME280;3021;51.000;6.980;2023-07-22T00:49:54;67854.03;;;13.92;100.00
5988;BME280;3021;51.000;6.980;2023-07-22T00:52:21;67867.19;;;14.01;100.00
5988;BME280;3021;51.000;6.980;2023-07-22T00:54:46;67860.97;;;13.98;100.00
5988;BME280;3021;51.000;6.980;2023-07-22T00:57:11;67854.03;;;13.92;100.00
5988;BME280;3021;51.000;6.980;2023-07-22T00:59:38;67843.00;;;13.82;100.00
5988;BME280;3021;51.000;6.980;2023-07-22T01:02:04;67834.91;;;13.75;100.00
5988;BME280;3021;51.000;6.980;2023-07-22T01:04:33;67825.06;;;13.66;100.00
5988;BME280;3021;51.000;6.980;2023-07-22T01:06:59;67818.09;;;13.60;100.00
5988;BME280;3021;51.000;6.980;2023-07-22T01:09:25;67811.41;;;13.59;100.00
5988;BME280;3021;51.000;6.980;2023-07-22T01:11:51;67821.00;;;13.62;100.00
5988;BME280;3021;51.000;6.980;2023-07-22T01:14:16;67831.28;;;13.69;100.00
5988;BME280;3021;51.000;6.980;2023-07-22T01:16:42;67830.84;;;13.71;100.00
5988;BME280;3021;51.000;6.980;2023-07-22T01:19:09;67829.66;;;13.70;100.00
5988;BME280;3021;51.000;6.980;2023-07-22T01:21:36;67826.19;;;13.67;100.00
5988;BME280;3021;51.000;6.980;2023-07-22T01:24:02;67832.56;;;13.73;100.00
5988;BME280;3021;51.000;6.980;2023-07-22T01:26:27;67828.53;;;13.69;100.00
5988;BME280;3021;51.000;6.980;2023-07-22T01:29:04;67822.16;;;13.63;100.00
5988;BME280;3021;51.000;6.980;2023-07-22T01:31:29;67803.31;;;13.52;100.00
5988;BME280;3021;51.000;6.980;2023-07-22T01:33:55;67809.25;;;13.50;100.00
5988;BME280;3021;51.000;6.980;2023-07-22T01:36:21;67807.94;;;13.56;100.00
5988;BME280;3021;51.000;6.980;2023-07-22T01:38:46;67820.41;;;13.62;100.00
5988;BME280;3021;51.000;6.980;2023-07-22T01:41:11;67822.88;;;13.67;100.00
5988;BME280;3021;51.000;6.980;2023-07-22T01:43:37;67832.44;;;13.70;100.00
5988;BME280;3021;51.000;6.980;2023-07-22T01:46:02;67827.50;;;13.71;100.00
5988;BME280;3021;51.000;6.980;2023-07-22T01:48:27;67819.97;;;13.64;100.00
5988;BME280;3021;51.000;6.980;2023-07-22T01:50:53;67827.94;;;13.69;100.00
5988;BME280;3021;51.000;6.980;2023-07-22T01:53:18;67832.00;;;13.72;100.00
5988;BME280;3021;51.000;6.980;2023-07-22T01:55:43;67833.28;;;13.76;100.00
5988;BME280;3021;51.000;6.980;2023-07-22T01:58:09;67841.69;;;13.78;100.00
5988;BME280;3021;51.000;6.980;2023-07-22T02:00:34;67839.09;;;13.81;100.00
5988;BME280;3021;51.000;6.980;2023-07-22T02:03:00;67831.41;;;13.72;100.00
5988;BME280;3021;51.000;6.980;2023-07-22T02:05:25;67820.84;;;13.60;100.00
5988;BME280;3021;51.000;6.980;2023-07-22T02:07:52;67815.19;;;13.57;100.00
5988;BME280;3021;51.000;6.980;2023-07-22T02:10:17;67818.53;;;13.58;100.00
5988;BME280;3021;51.000;6.980;2023-07-22T02:12:42;67819.69;;;13.59;100.00
5988;BME280;3021;51.000;6.980;2023-07-22T02:15:08;67822.16;;;13.63;100.00
5988;BME280;3021;51.000;6.980;2023-07-22T02:17:34;67820.41;;;13.62;100.00
5988;BME280;3021;51.000;6.980;2023-07-22T02:19:59;67820.41;;;13.62;100.00
5988;BME280;3021;51.000;6.980;2023-07-22T02:22:24;67812.88;;;13.55;100.00
5988;BME280;3021;51.000;6.980;2023-07-22T02:24:50;67806.38;;;13.47;100.00
5988;BME280;3021;51.000;6.980;2023-07-22T02:27:15;67792.16;;;13.39;100.00
5988;BME280;3021;51.000;6.980;2023-07-22T02:29:41;67787.94;;;13.33;100.00
5988;BME280;3021;51.000;6.980;2023-07-22T02:32:07;67786.19;;;13.31;100.00
5988;BME280;3021;51.000;6.980;2023-07-22T02:34:33;67789.56;;;13.32;100.00
5988;BME280;3021;51.000;6.980;2023-07-22T02:36:58;67786.19;;;13.31;100.00
5988;BME280;3021;51.000;6.980;2023-07-22T02:39:24;67787.22;;;13.30;100.00
5988;BME280;3021;51.000;6.980;2023-07-22T02:41:49;67786.19;;;13.31;100.00
5988;BME280;3021;51.000;6.980;2023-07-22T02:44:15;67785.63;;;13.31;100.00
5988;BME280;3021;51.000;6.980;2023-07-22T02:46:40;67790.69;;;13.33;100.00
5988;BME280;3021;51.000;6.980;2023-07-22T02:49:06;67793.75;;;13.38;100.00
5988;BME280;3021;51.000;6.980;2023-07-22T02:51:31;67803.59;;;13.47;100.00
5988;BME280;3021;51.000;6.980;2023-07-22T02:53:57;67811.72;;;13.54;100.00
5988;BME280;3021;51.000;6.980;2023-07-22T02:56:22;67818.09;;;13.60;100.00
5988;BME280;3021;51.000;6.980;2023-07-22T02:58:50;67824.31;;;13.63;100.00
5988;BME280;3021;51.000;6.980;2023-07-22T03:01:15;67829.53;;;13.68;100.00
5988;BME280;3021;51.000;6.980;2023-07-22T03:03:40;67831.41;;;13.72;100.00
5988;BME280;3021;51.000;6.980;2023-07-22T03:06:05;67836.03;;;13.76;100.00
5988;BME280;3021;51.000;6.980;2023-07-22T03:08:32;67843.00;;;13.82;100.00
5988;BME280;3021;51.000;6.980;2023-07-22T03:10:57;67844.91;;;13.86;100.00
5988;BME280;3021;51.000;6.980;2023-07-22T03:13:22;67847.06;;;13.86;100.00
5988;BME280;3021;51.000;6.980;2023-07-22T03:15:48;67849.38;;;13.88;100.00
5988;BME280;3021;51.000;6.980;2023-07-22T03:18:13;67849.38;;;13.88;100.00
5988;BME280;3021;51.000;6.980;2023-07-22T03:20:39;67853.00;;;13.93;100.00
5988;BME280;3021;51.000;6.980;2023-07-22T03:23:05;67859.81;;;13.97;100.00
5988;BME280;3021;51.000;6.980;2023-07-22T03:25:32;67859.94;;;13.99;100.00
5988;BME280;3021;51.000;6.980;2023-07-22T03:28:01;67857.63;;;13.97;100.00
5988;BME280;3021;51.000;6.980;2023-07-22T03:30:27;67855.31;;;13.95;100.00
5988;BME280;3021;51.000;6.980;2023-07-22T03:32:52;67862.72;;;13.99;100.00
5988;BME280;3021;51.000;6.980;2023-07-22T03:35:18;67862.72;;;13.99;100.00
5988;BME280;3021;51.000;6.980;2023-07-22T03:37:43;67864.91;;;13.99;100.00
5988;BME280;3021;51.000;6.980;2023-07-22T03:40:09;67862.13;;;13.99;100.00
5988;BME280;3021;51.000;6.980;2023-07-22T03:42:45;67860.53;;;14.00;100.00
5988;BME280;3021;51.000;6.980;2023-07-22T03:45:11;67865.75;;;14.05;100.00
5988;BME280;3021;51.000;6.980;2023-07-22T03:47:37;67868.50;;;14.05;100.00
5988;BME280;3021;51.000;6.980;2023-07-22T03:50:03;67873.13;;;14.09;100.00
5988;BME280;3021;51.000;6.980;2023-07-22T03:52:28;67872.13;;;14.10;100.00
5988;BME280;3021;51.000;6.980;2023-07-22T03:54:54;67881.84;;;14.16;100.00
5988;BME280;3021;51.000;6.980;2023-07-22T03:57:19;67885.31;;;14.20;100.00
5988;BME280;3021;51.000;6.980;2023-07-22T03:59:44;67891.25;;;14.27;100.00
5988;BME280;3021;51.000;6.980;2023-07-22T04:02:10;67895.88;;;14.31;100.00
5988;BME280;3021;51.000;6.980;2023-07-22T04:04:35;67904.00;;;14.39;100.00
5988;BME280;3021;51.000;6.980;2023-07-22T04:07:01;67905.72;;;14.40;100.00
5988;BME280;3021;51.000;6.980;2023-07-22T04:09:27;67917.63;;;14.46;100.00
5988;BME280;3021;51.000;6.980;2023-07-22T04:11:52;67916.59;;;14.47;100.00
5988;BME280;3021;51.000;6.980;2023-07-22T04:14:18;67914.88;;;14.46;100.00
5988;BME280;3021;51.000;6.980;2023-07-22T04:16:43;67915.59;;;14.49;100.00
5988;BME280;3021;51.000;6.980;2023-07-22T04:19:08;67920.66;;;14.51;100.00
5988;BME280;3021;51.000;6.980;2023-07-22T04:21:33;67925.88;;;14.56;100.00
5988;BME280;3021;51.000;6.980;2023-07-22T04:23:59;67925.88;;;14.56;100.00
5988;BME280;3021;51.000;6.980;2023-07-22T04:26:24;67931.69;;;14.61;100.00
5988;BME280;3021;51.000;6.980;2023-07-22T04:28:49;67940.41;;;14.68;100.00
5988;BME280;3021;51.000;6.980;2023-07-22T04:31:15;67937.63;;;14.68;100.00
5988;BME280;3021;51.000;6.980;2023-07-22T04:33:40;67946.22;;;14.74;100.00
5988;BME280;3021;51.000;6.980;2023-07-22T04:36:07;67942.44;;;14.75;100.00
5988;BME280;3021;51.000;6.980;2023-07-22T04:38:32;67956.78;;;14.85;100.00
5988;BME280;3021;51.000;6.980;2023-07-22T04:40:57;67968.25;;;14.93;100.00
5988;BME280;3021;51.000;6.980;2023-07-22T04:43:24;67969.41;;;14.94;100.00
5988;BME280;3021;51.000;6.980;2023-07-22T04:45:49;67963.59;;;14.89;100.00
5988;BME280;3021;51.000;6.980;2023-07-22T04:48:20;67959.09;;;14.88;100.00
5988;BME280;3021;51.000;6.980;2023-07-22T04:50:48;67958.38;;;14.84;100.00
5988;BME280;3021;51.000;6.980;2023-07-22T04:53:13;67957.22;;;14.83;100.00
5988;BME280;3021;51.000;6.980;2023-07-22T04:55:39;67953.88;;;14.83;100.00
5988;BME280;3021;51.000;6.980;2023-07-22T04:58:04;67964.75;;;14.90;100.00
5988;BME280;3021;51.000;6.980;2023-07-22T05:00:30;67967.66;;;14.93;100.00
5988;BME280;3021;51.000;6.980;2023-07-22T05:02:56;67966.63;;;14.94;100.00
5988;BME280;3021;51.000;6.980;2023-07-22T05:05:21;67958.50;;;14.87;100.00
5988;BME280;3021;51.000;6.980;2023-07-22T05:07:47;67951.41;;;14.78;100.00
5988;BME280;3021;51.000;6.980;2023-07-22T05:10:15;67962.59;;;14.91;100.00
5988;BME280;3021;51.000;6.980;2023-07-22T05:12:41;67978.81;;;15.05;100.00
5988;BME280;3021;51.000;6.980;2023-07-22T05:15:10;67992.16;;;15.17;100.00
5988;BME280;3021;51.000;6.980;2023-07-22T05:17:35;68012.00;;;15.37;100.00
5988;BME280;3021;51.000;6.980;2023-07-22T05:20:00;68035.09;;;15.55;100.00
5988;BME280;3021;51.000;6.980;2023-07-22T05:22:26;68075.88;;;15.94;100.00
5988;BME280;3021;51.000;6.980;2023-07-22T05:24:51;68234.16;;;17.29;100.00
5988;BME280;3021;51.000;6.980;2023-07-22T05:27:17;68447.00;;;19.17;100.00
5988;BME280;3021;51.000;6.980;2023-07-22T05:29:42;68651.09;;;21.03;100.00
5988;BME280;3021;51.000;6.980;2023-07-22T05:32:08;68637.00;;;20.88;100.00
5988;BME280;3021;51.000;6.980;2023-07-22T05:34:33;68679.66;;;21.28;100.00
5988;BME280;3021;51.000;6.980;2023-07-22T05:36:59;68684.91;;;21.33;100.00
5988;BME280;3021;51.000;6.980;2023-07-22T05:39:24;68582.34;;;20.42;100.00
5988;BME280;3021;51.000;6.980;2023-07-22T05:41:50;68462.38;;;19.36;100.00
5988;BME280;3021;51.000;6.980;2023-07-22T05:44:15;68416.28;;;18.93;100.00
5988;BME280;3021;51.000;6.980;2023-07-22T05:46:41;68401.16;;;18.79;100.00
5988;BME280;3021;51.000;6.980;2023-07-22T05:49:06;68350.09;;;18.37;100.00
5988;BME280;3021;51.000;6.980;2023-07-22T05:51:32;68347.19;;;18.34;100.00
5988;BME280;3021;51.000;6.980;2023-07-22T05:53:57;68396.63;;;18.78;100.00
5988;BME280;3021;51.000;6.980;2023-07-22T05:56:23;68477.97;;;19.47;100.00
5988;BME280;3021;51.000;6.980;2023-07-22T05:58:48;68520.59;;;19.88;100.00
5988;BME280;3021;51.000;6.980;2023-07-22T06:01:14;68476.94;;;19.49;100.00
5988;BME280;3021;51.000;6.980;2023-07-22T06:03:40;68460.53;;;19.32;100.00
5988;BME280;3021;51.000;6.980;2023-07-22T06:06:05;68420.94;;;18.97;100.00
5988;BME280;3021;51.000;6.980;2023-07-22T06:08:31;68430.72;;;19.03;100.00
5988;BME280;3021;51.000;6.980;2023-07-22T06:10:56;68473.06;;;19.38;100.00
5988;BME280;3021;51.000;6.980;2023-07-22T06:13:22;68467.63;;;19.41;100.00
5988;BME280;3021;51.000;6.980;2023-07-22T06:15:47;68418.50;;;18.92;100.00
5988;BME280;3021;51.000;6.980;2023-07-22T06:18:12;68426.78;;;19.02;100.00
5988;BME280;3021;51.000;6.980;2023-07-22T06:20:38;68467.50;;;19.38;100.00
5988;BME280;3021;51.000;6.980;2023-07-22T06:23:04;68527.34;;;19.89;100.00
5988;BME280;3021;51.000;6.980;2023-07-22T06:25:29;68569.53;;;20.31;100.00
5988;BME280;3021;51.000;6.980;2023-07-22T06:27:55;68615.44;;;20.69;100.00
5988;BME280;3021;51.000;6.980;2023-07-22T06:30:20;68856.25;;;22.82;100.00
5988;BME280;3021;51.000;6.980;2023-07-22T06:32:46;69016.81;;;24.23;100.00
5988;BME280;3021;51.000;6.980;2023-07-22T06:35:11;68980.16;;;23.93;100.00
5988;BME280;3021;51.000;6.980;2023-07-22T06:37:37;68859.16;;;22.84;100.00
5988;BME280;3021;51.000;6.980;2023-07-22T06:40:03;68709.25;;;21.52;100.00
5988;BME280;3021;51.000;6.980;2023-07-22T06:42:29;68742.63;;;21.84;100.00
5988;BME280;3021;51.000;6.980;2023-07-22T06:44:55;68730.38;;;21.73;100.00
5988;BME280;3021;51.000;6.980;2023-07-22T06:47:20;68742.03;;;21.83;100.00
5988;BME280;3021;51.000;6.980;2023-07-22T06:49:45;68756.03;;;21.96;100.00
5988;BME280;3021;51.000;6.980;2023-07-22T06:52:11;68722.78;;;21.66;100.00
5988;BME280;3021;51.000;6.980;2023-07-22T06:54:36;68628.13;;;20.78;100.00
5988;BME280;3021;51.000;6.980;2023-07-22T06:57:02;68614.84;;;20.68;100.00
5988;BME280;3021;51.000;6.980;2023-07-22T06:59:27;68583.97;;;20.41;100.00
5988;BME280;3021;51.000;6.980;2023-07-22T07:01:53;68575.81;;;20.34;100.00
5988;BME280;3021;51.000;6.980;2023-07-22T07:04:18;68610.75;;;20.65;100.00
5988;BME280;3021;51.000;6.980;2023-07-22T07:06:44;68659.13;;;21.08;100.00
5988;BME280;3021;51.000;6.980;2023-07-22T07:09:11;68654.59;;;21.06;100.00
5988;BME280;3021;51.000;6.980;2023-07-22T07:11:36;68640.50;;;20.91;100.00
5988;BME280;3021;51.000;6.980;2023-07-22T07:14:01;68620.69;;;20.74;100.00
5988;BME280;3021;51.000;6.980;2023-07-22T07:16:28;68679.06;;;21.28;100.00
5988;BME280;3021;51.000;6.980;2023-07-22T07:18:56;68706.34;;;21.49;100.00
5988;BME280;3021;51.000;6.980;2023-07-22T07:21:22;68690.72;;;21.38;100.00
5988;BME280;3021;51.000;6.980;2023-07-22T07:23:48;68705.31;;;21.51;100.00
5988;BME280;3021;51.000;6.980;2023-07-22T07:26:14;68717.44;;;21.59;100.00
5988;BME280;3021;51.000;6.980;2023-07-22T07:28:39;68767.00;;;22.03;100.00
5988;BME280;3021;51.000;6.980;2023-07-22T07:31:05;68779.47;;;22.19;100.00
5988;BME280;3021;51.000;6.980;2023-07-22T07:33:30;68802.13;;;22.36;100.00
5988;BME280;3021;51.000;6.980;2023-07-22T07:35:55;68731.28;;;21.69;100.00
5988;BME280;3021;51.000;6.980;2023-07-22T07:38:21;68690.59;;;21.35;100.00
5988;BME280;3021;51.000;6.980;2023-07-22T07:40:52;68717.44;;;21.59;100.00
5988;BME280;3021;51.000;6.980;2023-07-22T07:43:17;68748.34;;;21.86;100.00
5988;BME280;3021;51.000;6.980;2023-07-22T07:45:42;68754.84;;;21.95;100.00
5988;BME280;3021;51.000;6.980;2023-07-22T07:48:08;68774.09;;;22.12;100.00
5988;BME280;3021;51.000;6.980;2023-07-22T07:50:33;68806.78;;;22.40;100.00
5988;BME280;3021;51.000;6.980;2023-07-22T07:52:58;68860.47;;;22.88;100.00
5988;BME280;3021;51.000;6.980;2023-07-22T07:55:25;68887.78;;;23.09;100.00
5988;BME280;3021;51.000;6.980;2023-07-22T07:57:50;68866.88;;;22.93;100.00
5988;BME280;3021;51.000;6.980;2023-07-22T08:00:16;68889.53;;;23.11;100.00
5988;BME280;3021;51.000;6.980;2023-07-22T08:02:41;68919.28;;;23.37;100.00
5988;BME280;3021;51.000;6.980;2023-07-22T08:05:07;68988.31;;;24.01;100.00
5988;BME280;3021;51.000;6.980;2023-07-22T08:07:32;69039.84;;;24.48;100.00
5988;BME280;3021;51.000;6.980;2023-07-22T08:09:58;69065.91;;;24.66;100.00
5988;BME280;3021;51.000;6.980;2023-07-22T08:12:24;69087.41;;;24.83;100.00
5988;BME280;3021;51.000;6.980;2023-07-22T08:14:49;69115.56;;;25.10;100.00
5988;BME280;3021;51.000;6.980;2023-07-22T08:17:15;69087.53;;;24.86;100.00
5988;BME280;3021;51.000;6.980;2023-07-22T08:19:40;68971.94;;;23.86;100.00
5988;BME280;3021;51.000;6.980;2023-07-22T08:22:06;69009.94;;;24.20;100.00
5988;BME280;3021;51.000;6.980;2023-07-22T08:24:31;69060.06;;;24.61;100.00
5988;BME280;3021;51.000;6.980;2023-07-22T08:26:57;69161.78;;;25.51;100.00
5988;BME280;3021;51.000;6.980;2023-07-22T08:29:23;69279.44;;;26.57;100.00
5988;BME280;3021;51.000;6.980;2023-07-22T08:31:49;69392.31;;;27.54;100.00
5988;BME280;3021;51.000;6.980;2023-07-22T08:34:14;69471.97;;;28.24;100.00
5988;BME280;3021;51.000;6.980;2023-07-22T08:36:39;69576.84;;;29.16;100.00
5988;BME280;3021;51.000;6.980;2023-07-22T08:39:05;69663.16;;;29.94;100.00
5988;BME280;3021;51.000;6.980;2023-07-22T08:41:31;69567.56;;;29.10;100.00
5988;BME280;3021;51.000;6.980;2023-07-22T08:44:01;69516.63;;;28.66;100.00
5988;BME280;3021;51.000;6.980;2023-07-22T08:46:31;69533.59;;;28.81;100.00
5988;BME280;3021;51.000;6.980;2023-07-22T08:49:00;69571.69;;;29.14;100.00
5988;BME280;3021;51.000;6.980;2023-07-22T08:51:26;69554.22;;;29.01;100.00
5988;BME280;3021;51.000;6.980;2023-07-22T08:53:56;69492.47;;;28.42;100.00
5988;BME280;3021;51.000;6.980;2023-07-22T08:56:24;69512.50;;;28.62;100.00
5988;BME280;3021;51.000;6.980;2023-07-22T08:58:51;69573.91;;;29.13;100.00
5988;BME280;3021;51.000;6.980;2023-07-22T09:01:17;69765.25;;;30.84;100.00
5988;BME280;3021;51.000;6.980;2023-07-22T09:03:43;69765.81;;;30.84;100.00
5988;BME280;3021;51.000;6.980;2023-07-22T09:06:09;69826.28;;;31.38;100.00
5988;BME280;3021;51.000;6.980;2023-07-22T09:08:34;69924.34;;;32.24;95.44
5988;BME280;3021;51.000;6.980;2023-07-22T09:11:01;70178.94;;;34.49;92.77
5988;BME280;3021;51.000;6.980;2023-07-22T09:13:26;70375.44;;;36.21;84.96
5988;BME280;3021;51.000;6.980;2023-07-22T09:15:53;70388.44;;;36.32;82.08
5988;BME280;3021;51.000;6.980;2023-07-22T09:18:18;70290.63;;;35.44;78.54
5988;BME280;3021;51.000;6.980;2023-07-22T09:20:44;70286.50;;;35.41;77.33
5988;BME280;3021;51.000;6.980;2023-07-22T09:23:09;70333.09;;;35.84;78.00
5988;BME280;3021;51.000;6.980;2023-07-22T09:25:34;70388.34;;;36.30;77.59
5988;BME280;3021;51.000;6.980;2023-07-22T09:28:00;70312.38;;;35.63;77.44
5988;BME280;3021;51.000;6.980;2023-07-22T09:30:29;70047.63;;;33.29;78.98
5988;BME280;3021;51.000;6.980;2023-07-22T09:32:59;69962.41;;;32.54;81.47
5988;BME280;3021;51.000;6.980;2023-07-22T09:35:27;69984.94;;;32.79;81.60
5988;BME280;3021;51.000;6.980;2023-07-22T09:37:54;69903.19;;;32.05;82.04
5988;BME280;3021;51.000;6.980;2023-07-22T09:40:21;70033.03;;;33.19;83.04
5988;BME280;3021;51.000;6.980;2023-07-22T09:42:52;70080.03;;;33.60;79.38
5988;BME280;3021;51.000;6.980;2023-07-22T09:45:19;69951.47;;;32.50;79.93
5988;BME280;3021;51.000;6.980;2023-07-22T09:47:48;69845.63;;;31.54;82.03
5988;BME280;3021;51.000;6.980;2023-07-22T09:50:33;69889.00;;;31.90;81.63
5988;BME280;3021;51.000;6.980;2023-07-22T09:52:59;69850.22;;;31.56;82.03
5988;BME280;3021;51.000;6.980;2023-07-22T09:55:26;69739.31;;;30.59;86.24
5988;BME280;3021;51.000;6.980;2023-07-22T09:57:57;69867.97;;;31.74;83.80
5988;BME280;3021;51.000;6.980;2023-07-22T10:00:25;69929.03;;;32.28;81.91
5988;BME280;3021;51.000;6.980;2023-07-22T10:02:53;70118.88;;;33.94;82.68
5988;BME280;3021;51.000;6.980;2023-07-22T10:05:21;70241.19;;;35.01;79.33
5988;BME280;3021;51.000;6.980;2023-07-22T10:07:54;70315.91;;;35.67;77.17
5988;BME280;3021;51.000;6.980;2023-07-22T10:10:35;70346.03;;;35.95;73.84
5988;BME280;3021;51.000;6.980;2023-07-22T10:13:02;70234.81;;;34.98;74.39
5988;BME280;3021;51.000;6.980;2023-07-22T10:15:30;70162.47;;;34.35;76.55
5988;BME280;3021;51.000;6.980;2023-07-22T10:17:56;70187.75;;;34.57;75.63
5988;BME280;3021;51.000;6.980;2023-07-22T10:20:23;70260.00;;;35.18;74.02
5988;BME280;3021;51.000;6.980;2023-07-22T10:22:49;70293.06;;;35.49;68.58
5988;BME280;3021;51.000;6.980;2023-07-22T10:25:17;70094.25;;;33.75;70.22
5988;BME280;3021;51.000;6.980;2023-07-22T10:27:43;70048.41;;;33.35;73.90
5988;BME280;3021;51.000;6.980;2023-07-22T10:30:10;70071.72;;;33.50;71.65
5988;BME280;3021;51.000;6.980;2023-07-22T10:32:39;70107.78;;;33.87;70.11
5988;BME280;3021;51.000;6.980;2023-07-22T10:35:10;69934.91;;;32.33;71.14
5988;BME280;3021;51.000;6.980;2023-07-22T10:37:39;69795.06;;;31.08;71.10
5988;BME280;3021;51.000;6.980;2023-07-22T10:40:25;69656.13;;;29.88;70.56
5988;BME280;3021;51.000;6.980;2023-07-22T10:43:06;69679.47;;;30.06;73.34
5988;BME280;3021;51.000;6.980;2023-07-22T10:45:33;69625.06;;;29.61;74.87
5988;BME280;3021;51.000;6.980;2023-07-22T10:50:47;69796.94;;;31.12;74.16
5988;BME280;3021;51.000;6.980;2023-07-22T10:53:19;69816.28;;;31.29;74.96
5988;BME280;3021;51.000;6.980;2023-07-22T11:14:27;69976.03;;;32.69;73.25
5988;BME280;3021;51.000;6.980;2023-07-22T11:16:53;69966.13;;;32.63;70.63
5988;BME280;3021;51.000;6.980;2023-07-22T11:19:22;70316.44;;;35.64;68.11
5988;BME280;3021;51.000;6.980;2023-07-22T11:21:50;70690.13;;;38.96;63.92
5988;BME280;3021;51.000;6.980;2023-07-22T11:24:16;70722.47;;;39.22;60.58
5988;BME280;3021;51.000;6.980;2023-07-22T11:26:42;70822.28;;;40.12;59.40
5988;BME280;3021;51.000;6.980;2023-07-22T11:29:09;70713.03;;;39.14;59.73
5988;BME280;3021;51.000;6.980;2023-07-22T11:31:36;70570.47;;;37.92;60.40
5988;BME280;3021;51.000;6.980;2023-07-22T11:34:03;70497.28;;;37.25;60.53
5988;BME280;3021;51.000;6.980;2023-07-22T11:36:28;70333.00;;;35.81;62.67
5988;BME280;3021;51.000;6.980;2023-07-22T11:39:01;70154.72;;;34.25;61.99
5988;BME280;3021;51.000;6.980;2023-07-22T11:41:26;70069.56;;;33.53;64.24
5988;BME280;3021;51.000;6.980;2023-07-22T11:43:51;69954.88;;;32.50;64.82
5988;BME280;3021;51.000;6.980;2023-07-22T11:46:17;69833.31;;;31.44;66.87
5988;BME280;3021;51.000;6.980;2023-07-22T11:48:52;69732.97;;;30.56;67.33
5988;BME280;3021;51.000;6.980;2023-07-22T11:51:20;69715.34;;;30.40;69.12
5988;BME280;3021;51.000;6.980;2023-07-22T11:53:47;69647.31;;;29.80;69.84
5988;BME280;3021;51.000;6.980;2023-07-22T11:56:20;69641.47;;;29.75;70.44
5988;BME280;3021;51.000;6.980;2023-07-22T11:58:54;69622.59;;;29.56;70.04
5988;BME280;3021;51.000;6.980;2023-07-22T12:01:20;69620.94;;;29.57;72.24
5988;BME280;3021;51.000;6.980;2023-07-22T12:03:46;69613.81;;;29.48;71.17
5988;BME280;3021;51.000;6.980;2023-07-22T12:06:12;69616.13;;;29.51;72.82
5988;BME280;3021;51.000;6.980;2023-07-22T12:08:47;69585.06;;;29.23;72.89
5988;BME280;3021;51.000;6.980;2023-07-22T12:11:16;69520.69;;;28.69;73.49
5988;BME280;3021;51.000;6.980;2023-07-22T12:13:41;69502.41;;;28.51;75.22
5988;BME280;3021;51.000;6.980;2023-07-22T12:16:10;69485.44;;;28.36;76.83
5988;BME280;3021;51.000;6.980;2023-07-22T12:18:44;69484.38;;;28.37;74.23
5988;BME280;3021;51.000;6.980;2023-07-22T12:21:10;69463.19;;;28.16;74.86
5988;BME280;3021;51.000;6.980;2023-07-22T12:23:36;69427.56;;;27.87;75.95
5988;BME280;3021;51.000;6.980;2023-07-22T12:26:03;69385.41;;;27.50;76.27
5988;BME280;3021;51.000;6.980;2023-07-22T12:28:28;69373.00;;;27.37;77.56
5988;BME280;3021;51.000;6.980;2023-07-22T12:30:54;69374.75;;;27.38;78.66
5988;BME280;3021;51.000;6.980;2023-07-22T12:33:20;69386.47;;;27.49;76.81
5988;BME280;3021;51.000;6.980;2023-07-22T12:35:45;69384.13;;;27.47;77.74
5988;BME280;3021;51.000;6.980;2023-07-22T12:38:11;69376.03;;;27.42;77.31
5988;BME280;3021;51.000;6.980;2023-07-22T12:40:36;69385.88;;;27.48;76.31
5988;BME280;3021;51.000;6.980;2023-07-22T12:43:01;69388.22;;;27.50;76.39
5988;BME280;3021;51.000;6.980;2023-07-22T12:45:27;69395.72;;;27.54;77.91
5988;BME280;3021;51.000;6.980;2023-07-22T12:47:53;69389.41;;;27.51;77.75
5988;BME280;3021;51.000;6.980;2023-07-22T12:50:19;69361.28;;;27.27;77.32
5988;BME280;3021;51.000;6.980;2023-07-22T12:52:44;69324.53;;;26.97;78.06
5988;BME280;3021;51.000;6.980;2023-07-22T12:55:09;69316.78;;;26.87;78.73
5988;BME280;3021;51.000;6.980;2023-07-22T12:57:35;69333.28;;;27.04;77.76
5988;BME280;3021;51.000;6.980;2023-07-22T13:00:00;69323.91;;;26.96;77.22
5988;BME280;3021;51.000;6.980;2023-07-22T13:02:25;69354.25;;;27.20;74.34
5988;BME280;3021;51.000;6.980;2023-07-22T13:04:51;69373.69;;;27.40;75.31
5988;BME280;3021;51.000;6.980;2023-07-22T13:07:16;69356.47;;;27.20;73.91
5988;BME280;3021;51.000;6.980;2023-07-22T13:09:42;69303.47;;;26.78;73.75
5988;BME280;3021;51.000;6.980;2023-07-22T13:12:08;69295.72;;;26.69;74.33
5988;BME280;3021;51.000;6.980;2023-07-22T13:14:33;69289.88;;;26.64;74.74
5988;BME280;3021;51.000;6.980;2023-07-22T13:16:59;69286.34;;;26.61;74.22
5988;BME280;3021;51.000;6.980;2023-07-22T13:19:24;69258.50;;;26.41;75.49
5988;BME280;3021;51.000;6.980;2023-07-22T13:21:49;69271.13;;;26.47;75.38
5988;BME280;3021;51.000;6.980;2023-07-22T13:24:15;69303.34;;;26.76;76.85
5988;BME280;3021;51.000;6.980;2023-07-22T13:26:40;69311.41;;;26.80;75.33
5988;BME280;3021;51.000;6.980;2023-07-22T13:29:06;69296.19;;;26.67;76.55
5988;BME280;3021;51.000;6.980;2023-07-22T13:31:31;69283.31;;;26.55;75.73